Time;durP1;ratioP1;P1;durP2;ratioP2;P2;SDS_P1;SDS_P2;PMS_P1;PMS_P2;Temp;Humidity;BMP_temperature;BMP_pressure;BME280_temperature;BME280_humidity;BME280_pressure;Samples;Min_cycle;Max_cycle;Signal;HPM_P1;HPM_P2
2022/01/15 00:01:40;;;;;;;24.63;8.33;;;;;;;0.27;79.25;101448.55;2020502;86;31455;-61
2022/01/15 00:04:42;;;;;;;27.85;8.18;;;;;;;0.22;79.15;101455.09;2014075;86;34124;-61
2022/01/15 00:07:47;;;;;;;27.22;9.23;;;;;;;0.20;79.30;101459.88;2023711;86;30511;-62
2022/01/15 00:10:48;;;;;;;27.98;9.95;;;;;;;0.16;79.29;101458.96;2020969;86;27665;-63
2022/01/15 00:14:08;;;;;;;32.98;10.35;;;;;;;0.14;79.36;101458.05;2017672;86;28957;-66
2022/01/15 00:17:07;;;;;;;32.95;12.07;;;;;;;0.09;79.14;101460.64;2016444;86;31058;-62
2022/01/15 00:20:09;;;;;;;28.73;9.98;;;;;;;0.06;79.15;101459.73;2019563;86;32876;-60
2022/01/15 00:23:11;;;;;;;28.15;9.15;;;;;;;0.02;79.25;101464.50;2016177;86;30808;-61
2022/01/15 00:26:15;;;;;;;27.13;10.58;;;;;;;-0.03;79.39;101467.95;2015954;86;27755;-61
2022/01/15 00:29:17;;;;;;;32.67;10.85;;;;;;;-0.06;79.28;101475.80;2016462;86;28777;-65
2022/01/15 00:32:18;;;;;;;30.52;12.43;;;;;;;-0.09;79.27;101472.25;2025791;86;31013;-63
2022/01/15 00:35:23;;;;;;;36.45;13.93;;;;;;;-0.13;79.46;101470.02;2020577;86;32867;-64
2022/01/15 00:38:25;;;;;;;;;;;;;;;-0.14;79.49;101471.30;2021722;86;29691;-63
2022/01/15 00:41:27;;;;;;;33.67;12.23;;;;;;;-0.16;79.52;101468.66;2021297;86;27763;-63
2022/01/15 00:44:29;;;;;;;29.87;13.45;;;;;;;-0.19;79.52;101470.83;2021256;86;28666;-64
2022/01/15 00:47:32;;;;;;;29.18;11.60;;;;;;;-0.21;79.60;101473.87;2016446;86;31858;-61
2022/01/15 00:50:34;;;;;;;41.13;11.33;;;;;;;-0.24;79.57;101472.91;2012993;86;32744;-61
2022/01/15 00:53:35;;;;;;;41.55;12.10;;;;;;;-0.26;79.67;101468.96;2009159;86;30128;-62
2022/01/15 00:56:37;;;;;;;38.63;13.40;;;;;;;-0.27;79.74;101458.42;2036444;86;27726;-67
2022/01/15 00:59:39;;;;;;;31.20;12.37;;;;;;;-0.29;79.71;101461.01;2055041;85;29084;-66
2022/01/15 01:02:40;;;;;;;39.58;12.23;;;;;;;-0.32;79.69;101454.37;2040718;86;32190;-67
2022/01/15 01:05:42;;;;;;;35.98;10.15;;;;;;;-0.35;79.72;101456.99;2041437;86;33421;-66
2022/01/15 01:08:44;;;;;;;35.45;10.43;;;;;;;-0.37;79.87;101459.59;2065217;85;30404;-65
2022/01/15 01:11:55;;;;;;;46.25;11.55;;;;;;;-0.39;79.89;101459.99;2080979;84;27713;-65
2022/01/15 01:24:50;;;;;;;36.28;10.60;;;;;;;-0.49;79.76;101463.36;2031086;87;30850;-64
2022/01/15 01:27:57;;;;;;;36.00;10.53;;;;;;;-0.54;79.79;101466.35;2029806;86;27756;-65
2022/01/15 01:31:12;;;;;;;29.52;9.18;;;;;;;-0.56;79.76;101465.02;2042868;86;28791;-64
2022/01/15 01:34:11;;;;;;;34.25;8.78;;;;;;;-0.60;79.93;101465.83;2045778;84;31701;-65
2022/01/15 01:37:16;;;;;;;28.00;8.58;;;;;;;-0.63;79.92;101470.63;2026525;86;33903;-66
2022/01/15 01:40:20;;;;;;;32.67;9.23;;;;;;;-0.67;79.98;101471.88;2051327;85;28889;-66
2022/01/15 01:49:29;;;;;;;39.13;8.35;;;;;;;-0.74;80.11;101477.89;2065901;85;32047;-66
2022/01/15 01:52:31;;;;;;;36.60;10.03;;;;;;;-0.75;80.18;101482.28;2050999;85;34178;-64
2022/01/15 01:55:32;;;;;;;29.25;10.40;;;;;;;-0.78;80.15;101480.47;2053732;86;30337;-66
2022/01/15 01:58:34;;;;;;;32.28;9.55;;;;;;;-0.80;80.15;101478.23;2055361;86;27693;-65
2022/01/15 02:01:36;;;;;;;38.20;9.48;;;;;;;-0.84;80.19;101470.28;2055095;86;29383;-66
2022/01/15 02:04:38;;;;;;;35.40;8.93;;;;;;;-0.86;80.24;101463.69;2049930;86;30955;-65
2022/01/15 02:07:43;;;;;;;33.60;10.48;;;;;;;-0.88;80.37;101460.14;2067942;86;32935;-66
2022/01/15 02:10:45;;;;;;;34.35;9.33;;;;;;;-0.88;80.42;101468.45;2067992;85;29025;-66
2022/01/15 02:13:47;;;;;;;32.78;10.50;;;;;;;-0.90;80.51;101464.91;2068019;86;27637;-65
2022/01/15 02:16:49;;;;;;;34.92;10.80;;;;;;;-0.91;80.53;101467.98;2067851;85;28697;-65
2022/01/15 02:20:11;;;;;;;30.37;10.18;;;;;;;-0.91;80.54;101467.98;2067607;85;32328;-65
2022/01/15 02:26:27;;;;;;;35.87;9.47;;;;;;;-0.95;80.73;101471.00;2067892;85;30923;-65
2022/01/15 02:29:28;;;;;;;28.62;8.30;;;;;;;-0.94;80.80;101478.44;2067943;85;27711;-66
2022/01/15 02:32:34;;;;;;;25.92;8.13;;;;;;;-0.94;80.91;101476.72;2067569;86;28433;-65
2022/01/15 02:35:37;;;;;;;29.02;7.90;;;;;;;-0.95;80.95;101478.89;2068004;86;31431;-64
2022/01/15 02:38:42;;;;;;;26.37;8.13;;;;;;;-0.95;81.02;101474.94;2067486;85;33909;-65
2022/01/15 02:41:44;;;;;;;29.72;8.53;;;;;;;-0.93;81.03;101476.27;2060321;86;29631;-65
2022/01/15 02:44:45;;;;;;;32.28;7.83;;;;;;;-0.95;81.06;101469.68;2055778;86;27660;-65
2022/01/15 02:48:02;;;;;;;27.58;6.62;;;;;;;-0.95;81.10;101464.42;2055483;86;29822;-66
2022/01/15 02:51:04;;;;;;;31.27;6.90;;;;;;;-0.96;81.06;101465.69;2055419;86;31057;-65
2022/01/15 02:54:06;;;;;;;31.30;6.62;;;;;;;-0.97;81.09;101470.08;2055388;86;34160;-61
2022/01/15 02:57:08;;;;;;;34.38;8.98;;;;;;;-0.97;81.08;101466.14;2040842;86;30795;-60
2022/01/15 03:00:13;;;;;;;24.15;7.50;;;;;;;-0.98;81.14;101467.41;2040805;87;27698;-66
2022/01/15 03:03:15;;;;;;;35.25;6.22;;;;;;;-0.99;81.11;101466.53;2040961;87;29477;-61
2022/01/15 03:06:20;;;;;;;34.98;6.83;;;;;;;-1.00;81.06;101467.39;2040665;87;32256;-65
2022/01/15 03:09:22;;;;;;;22.40;6.22;;;;;;;-1.01;81.00;101468.70;2041088;87;33174;-61
2022/01/15 03:12:24;;;;;;;27.75;6.60;;;;;;;-1.04;80.94;101472.14;2041024;87;30797;-65
2022/01/15 03:15:27;;;;;;;31.00;6.37;;;;;;;-1.06;80.91;101476.48;2041030;87;27686;-66
2022/01/15 03:18:29;;;;;;;25.50;6.28;;;;;;;-1.09;80.86;101479.95;2040957;86;29472;-66
2022/01/15 03:21:31;;;;;;;29.98;6.85;;;;;;;-1.12;80.89;101477.70;2041064;87;31231;-66
2022/01/15 03:24:33;;;;;;;37.15;8.05;;;;;;;-1.15;80.91;101469.31;2040841;87;33535;-66
2022/01/15 03:27:35;;;;;;;33.75;8.30;;;;;;;-1.16;80.90;101475.88;2041106;86;30779;-66
2022/01/15 03:30:37;;;;;;;33.48;7.53;;;;;;;-1.20;80.83;101466.16;2041155;87;28251;-66
2022/01/15 03:33:39;;;;;;;34.23;8.60;;;;;;;-1.23;80.91;101468.31;2041061;87;28101;-64
2022/01/15 03:36:41;;;;;;;28.10;8.58;;;;;;;-1.25;80.89;101460.82;2040665;86;32274;-66
2022/01/15 03:39:45;;;;;;;26.45;6.90;;;;;;;-1.28;80.98;101456.81;2041012;87;32914;-65
2022/01/15 03:42:47;;;;;;;25.65;6.95;;;;;;;-1.31;81.00;101462.92;2009091;88;29856;-66
2022/01/15 03:45:49;;;;;;;30.65;6.90;;;;;;;-1.34;80.97;101462.86;2020211;87;27738;-65
2022/01/15 03:48:50;;;;;;;36.85;8.45;;;;;;;-1.35;81.06;101461.08;2020159;88;29977;-65
2022/01/15 03:51:52;;;;;;;28.02;8.60;;;;;;;-1.37;81.01;101456.22;2019397;88;31386;-66
2022/01/15 03:54:55;;;;;;;35.05;9.95;;;;;;;-1.39;81.07;101454.89;2021944;87;34115;-65
2022/01/15 03:57:59;;;;;;;32.83;8.05;;;;;;;-1.40;81.13;101454.84;2034024;87;29426;-66
2022/01/15 04:01:00;;;;;;;29.00;7.37;;;;;;;-1.42;81.20;101449.57;2034375;87;27687;-65
2022/01/15 04:04:03;;;;;;;34.58;7.53;;;;;;;-1.43;81.24;101456.12;2034198;87;30025;-66
2022/01/15 04:07:05;;;;;;;29.70;8.23;;;;;;;-1.46;81.28;101455.62;2034684;87;31690;-66
2022/01/15 04:10:11;;;;;;;25.88;7.95;;;;;;;-1.46;81.32;101464.82;2044108;84;33433;-67
2022/01/15 04:13:15;;;;;;;26.20;7.17;;;;;;;-1.46;81.41;101467.45;2100210;84;29647;-66
2022/01/15 04:16:16;;;;;;;30.40;8.18;;;;;;;-1.46;81.50;101474.02;2103148;84;27675;-66
2022/01/15 04:19:18;;;;;;;27.80;7.62;;;;;;;-1.45;81.54;101481.05;2102320;84;28649;-66
2022/01/15 04:22:20;;;;;;;35.68;11.63;;;;;;;-1.45;81.57;101480.18;2103312;84;32198;-66
2022/01/15 04:25:22;;;;;;;41.95;13.72;;;;;;;-1.44;81.61;101482.83;2119062;84;33104;-66
2022/01/15 04:28:24;;;;;;;50.08;21.07;;;;;;;-1.44;81.61;101485.89;2087948;85;29399;-65
2022/01/15 04:31:26;;;;;;;65.28;25.25;;;;;;;-1.45;81.59;101491.56;2082336;85;27717;-66
2022/01/15 04:34:33;;;;;;;74.17;25.00;;;;;;;-1.45;81.72;101492.88;2081944;85;29160;-66
2022/01/15 04:37:47;;;;;;;48.25;14.87;;;;;;;-1.44;81.75;101488.08;2082360;85;31076;-66
2022/01/15 04:40:39;;;;;;;33.92;10.25;;;;;;;-1.45;81.70;101495.50;2068223;84;32990;-66
2022/01/15 04:43:41;;;;;;;37.10;10.23;;;;;;;-1.43;81.74;101502.13;2037398;87;29502;-66
2022/01/15 04:46:42;;;;;;;33.50;8.28;;;;;;;-1.45;81.73;101499.45;2037593;86;27686;-66
2022/01/15 04:49:44;;;;;;;32.70;9.18;;;;;;;-1.46;81.76;101507.31;2039098;87;29532;-66
2022/01/15 04:52:47;;;;;;;32.53;10.03;;;;;;;-1.42;81.94;101498.64;2043551;86;30836;-65
2022/01/15 04:55:49;;;;;;;28.42;8.38;;;;;;;-1.36;82.15;101503.12;2043730;86;34194;-66
2022/01/15 04:58:51;;;;;;;34.23;9.60;;;;;;;-1.27;82.35;101501.97;2050386;86;29802;-66
2022/01/15 05:01:54;;;;;;;35.17;10.55;;;;;;;-1.16;82.59;101497.81;2051194;86;27679;-65
2022/01/15 05:04:56;;;;;;;31.42;10.90;;;;;;;-1.03;82.79;101503.28;2048697;86;29067;-65
2022/01/15 05:07:58;;;;;;;35.45;12.45;;;;;;;-0.92;82.85;101502.62;2048307;86;31889;-67
2022/01/15 05:11:10;;;;;;;34.95;12.28;;;;;;;-0.79;82.92;101504.13;2052253;86;34129;-65
2022/01/15 05:14:03;;;;;;;35.33;11.10;;;;;;;-0.67;83.09;101499.06;2055296;86;30495;-66
2022/01/15 05:17:05;;;;;;;41.83;12.55;;;;;;;-0.55;82.99;101497.06;2055288;86;27714;-67
2022/01/15 05:20:09;;;;;;;35.83;12.78;;;;;;;-0.46;82.96;101495.88;2049602;85;28655;-66
2022/01/15 05:23:11;;;;;;;39.95;13.20;;;;;;;-0.36;82.89;101502.61;2049550;85;31043;-67
2022/01/15 05:26:13;;;;;;;36.83;13.18;;;;;;;-0.29;82.81;101503.14;2053235;86;33662;-67
2022/01/15 05:29:14;;;;;;;32.58;11.70;;;;;;;-0.22;82.76;101501.48;2053209;86;29721;-66
2022/01/15 05:32:19;;;;;;;33.83;12.85;;;;;;;-0.24;82.70;101486.98;2055288;86;27742;-66
2022/01/15 05:35:25;;;;;;;30.95;12.78;;;;;;;-0.08;82.68;101505.19;2049017;86;28882;-67
2022/01/15 05:38:24;;;;;;;36.42;13.40;;;;;;;-0.03;82.51;101511.86;2055384;86;31489;-66
2022/01/15 05:41:25;;;;;;;27.70;12.80;;;;;;;0.02;82.48;101507.97;2053336;86;32707;-66
2022/01/15 05:44:29;;;;;;;28.47;12.93;;;;;;;0.04;82.39;101507.11;2047258;86;27687;-65
2022/01/15 05:47:31;;;;;;;34.73;13.30;;;;;;;0.07;82.37;101508.92;2048137;86;27674;-66
2022/01/15 05:50:33;;;;;;;29.85;12.70;;;;;;;0.09;82.33;101505.43;2051940;86;29834;-66
2022/01/15 05:53:35;;;;;;;39.00;13.75;;;;;;;0.13;82.30;101499.76;2049189;86;31841;-66
2022/01/15 05:56:39;;;;;;;30.62;13.20;;;;;;;0.17;82.31;101506.84;2054591;86;34409;-67
2022/01/15 05:59:41;;;;;;;36.08;14.63;;;;;;;0.22;82.32;101507.80;2048717;86;35342;-65
2022/01/15 06:02:43;;;;;;;29.32;13.72;;;;;;;0.25;82.24;101510.89;2047030;86;27706;-66
2022/01/15 06:05:45;;;;;;;26.70;13.00;;;;;;;0.27;82.18;101523.66;2047940;86;28713;-66
2022/01/15 06:08:47;;;;;;;29.45;13.15;;;;;;;0.30;82.15;101519.75;2048359;86;31076;-66
2022/01/15 06:11:49;;;;;;;39.13;14.68;;;;;;;0.33;82.18;101523.75;2048317;86;33674;-66
2022/01/15 06:14:50;;;;;;;30.90;13.98;;;;;;;0.39;82.21;101533.03;2050665;86;30992;-67
2022/01/15 06:17:52;;;;;;;31.00;13.55;;;;;;;0.42;82.13;101525.17;2052255;86;27531;-67
2022/01/15 06:20:54;;;;;;;31.02;14.45;;;;;;;0.46;82.13;101528.72;2048101;86;29300;-62
2022/01/15 06:23:56;;;;;;;48.25;15.05;;;;;;;0.50;82.12;101528.34;2047024;86;31053;-66
2022/01/15 06:26:57;;;;;;;40.92;16.40;;;;;;;0.54;82.09;101531.03;2048071;86;34066;-67
2022/01/15 06:30:00;;;;;;;36.28;15.35;;;;;;;0.58;82.16;101523.58;2051417;85;31012;-65
2022/01/15 06:33:02;;;;;;;31.62;14.98;;;;;;;0.62;82.03;101524.94;2049627;86;27601;-66
2022/01/15 06:36:05;;;;;;;34.98;14.78;;;;;;;0.64;81.97;101525.43;2047983;86;29629;-65
2022/01/15 06:39:06;;;;;;;40.85;15.30;;;;;;;0.68;81.95;101517.11;2048104;86;30902;-67
2022/01/15 06:42:11;;;;;;;39.53;16.07;;;;;;;0.69;81.90;101526.34;2048245;86;34180;-66
2022/01/15 06:45:13;;;;;;;50.87;14.77;;;;;;;0.71;81.93;101523.30;2049000;86;29645;-67
2022/01/15 06:48:15;;;;;;;34.25;15.25;;;;;;;0.73;81.86;101525.52;2048599;86;27622;-66
2022/01/15 06:51:16;;;;;;;50.75;18.80;;;;;;;0.77;81.92;101525.11;2051446;86;29075;-66
2022/01/15 06:54:19;;;;;;;46.88;18.37;;;;;;;0.82;81.95;101526.50;2049373;86;30521;-67
2022/01/15 06:57:21;;;;;;;44.03;21.42;;;;;;;0.86;81.99;101524.31;2045826;86;33057;-62
2022/01/15 07:00:24;;;;;;;36.45;19.15;;;;;;;0.89;81.98;101521.30;2052576;86;30058;-68
2022/01/15 07:03:26;;;;;;;40.10;18.60;;;;;;;0.94;81.98;101525.72;2050345;86;27810;-67
2022/01/15 07:06:28;;;;;;;47.48;16.42;;;;;;;1.00;81.97;101531.06;2053015;86;29263;-61
2022/01/15 07:09:30;;;;;;;46.33;18.37;;;;;;;1.04;81.95;101531.55;2052763;86;31087;-67
2022/01/15 07:12:32;;;;;;;43.10;15.88;;;;;;;1.09;81.90;101535.55;2052712;86;32783;-66
2022/01/15 07:15:34;;;;;;;40.90;17.32;;;;;;;1.11;81.83;101539.95;2052839;86;29670;-63
2022/01/15 07:18:36;;;;;;;58.48;24.98;;;;;;;1.13;81.67;101533.39;2031488;86;28339;-67
2022/01/15 07:21:39;;;;;;;48.28;20.57;;;;;;;1.14;81.68;101540.45;2047171;86;28617;-66
2022/01/15 07:24:41;;;;;;;46.40;18.73;;;;;;;1.16;81.75;101538.26;2045926;86;31044;-66
2022/01/15 07:27:43;;;;;;;50.63;21.93;;;;;;;1.23;81.73;101542.28;2049880;86;34049;-61
2022/01/15 07:30:45;;;;;;;46.90;18.87;;;;;;;1.25;81.74;101532.17;2051328;86;29641;-68
2022/01/15 07:33:47;;;;;;;42.17;17.07;;;;;;;1.28;81.70;101533.95;2048641;86;27698;-68
2022/01/15 07:36:53;;;;;;;45.23;16.32;;;;;;;1.30;81.64;101541.03;2052791;86;28734;-67
2022/01/15 07:39:55;;;;;;;38.70;14.83;;;;;;;1.35;81.67;101551.17;2052320;86;31432;-67
2022/01/15 07:42:57;;;;;;;43.55;14.68;;;;;;;1.40;81.67;101546.38;2064094;85;34326;-64
2022/01/15 07:45:58;;;;;;;36.90;14.80;;;;;;;1.45;81.68;101548.19;2103365;84;30996;-67
2022/01/15 07:49:00;;;;;;;34.88;14.90;;;;;;;1.47;81.58;101555.69;2062558;85;27259;-66
2022/01/15 07:52:04;;;;;;;45.98;14.03;;;;;;;1.51;81.49;101553.52;2053369;86;29923;-67
2022/01/15 07:55:07;;;;;;;39.90;15.15;;;;;;;1.56;81.50;101551.36;2017659;86;31770;-66
2022/01/15 07:58:10;;;;;;;48.13;15.90;;;;;;;1.62;81.53;101552.72;2075355;85;33022;-66
2022/01/15 08:01:12;;;;;;;47.58;17.35;;;;;;;1.70;81.62;101563.34;2063976;85;29500;-65
2022/01/15 08:04:14;;;;;;;43.38;14.43;;;;;;;1.75;81.37;101562.95;2047916;86;27707;-65
2022/01/15 08:07:18;;;;;;;43.02;14.00;;;;;;;1.80;81.34;101567.84;2052592;86;29528;-66
2022/01/15 08:10:19;;;;;;;51.28;12.65;;;;;;;1.88;81.45;101570.53;2048377;86;31893;-65
2022/01/15 08:13:24;;;;;;;37.20;13.40;;;;;;;1.92;81.23;101578.48;2051477;86;33679;-64
2022/01/15 08:16:27;;;;;;;44.77;13.65;;;;;;;1.99;81.26;101570.61;2048208;86;29642;-67
2022/01/15 08:19:30;;;;;;;40.95;13.28;;;;;;;2.05;81.11;101566.23;2049631;86;27671;-66
2022/01/15 08:22:32;;;;;;;39.92;15.95;;;;;;;2.11;81.07;101569.35;2052279;86;29919;-63
2022/01/15 08:25:34;;;;;;;36.50;14.25;;;;;;;2.20;81.17;101572.48;2055303;86;32001;-66
2022/01/15 08:28:39;;;;;;;39.73;13.38;;;;;;;2.30;81.15;101572.10;2055185;86;32217;-65
2022/01/15 08:31:40;;;;;;;;;;;;;;;2.37;81.03;101575.20;2052875;86;30834;-65
2022/01/15 08:34:43;;;;;;;38.88;13.98;;;;;;;2.45;80.84;101582.76;2047537;86;27710;-66
2022/01/15 08:37:45;;;;;;;39.20;12.45;;;;;;;2.45;80.54;101578.79;2046094;86;29439;-66
2022/01/15 08:40:47;;;;;;;40.43;13.53;;;;;;;2.48;80.48;101591.13;2047555;86;31699;-65
2022/01/15 08:43:49;;;;;;;38.45;14.30;;;;;;;2.52;80.48;101592.92;2048055;86;33840;-65
2022/01/15 08:46:52;;;;;;;47.35;14.95;;;;;;;2.55;80.43;101591.17;2048114;86;30565;-64
2022/01/15 08:49:56;;;;;;;43.95;15.70;;;;;;;2.63;80.39;101595.16;2047968;85;27685;-63
2022/01/15 08:52:58;;;;;;;43.80;14.38;;;;;;;2.71;80.39;101595.20;2050301;86;29508;-65
2022/01/15 08:56:01;;;;;;;37.65;13.78;;;;;;;2.79;80.26;101592.58;2054966;86;27943;-64
2022/01/15 08:59:04;;;;;;;50.58;21.02;;;;;;;2.87;80.26;101591.73;2054786;86;33555;-66
2022/01/15 09:02:06;;;;;;;142.85;61.35;;;;;;;2.94;80.04;101593.08;2035629;86;30486;-66
2022/01/15 09:05:09;;;;;;;151.80;55.52;;;;;;;3.01;79.90;101585.58;2055766;86;27667;-65
2022/01/15 09:08:12;;;;;;;225.62;85.62;;;;;;;3.06;79.96;101589.59;2049121;86;28678;-62
2022/01/15 09:11:14;;;;;;;81.63;32.63;;;;;;;3.14;79.86;101595.77;2053128;86;31976;-63
2022/01/15 09:14:17;;;;;;;149.93;56.33;;;;;;;3.18;79.58;101599.74;2054996;86;34263;-66
2022/01/15 09:17:20;;;;;;;132.43;51.05;;;;;;;3.24;79.64;101609.92;2055246;85;30475;-65
2022/01/15 09:20:22;;;;;;;142.15;57.10;;;;;;;3.32;79.68;101612.13;2055439;86;28174;-64
2022/01/15 09:23:24;;;;;;;69.30;32.08;;;;;;;3.38;79.53;101605.52;2054983;86;30034;-66
2022/01/15 09:33:09;;;;;;;45.20;16.87;;;;;;;3.83;79.08;101615.25;2053098;86;29701;-71
2022/01/15 09:36:11;;;;;;;48.98;16.93;;;;;;;3.90;78.88;101614.38;2055068;86;27864;-70
2022/01/15 09:39:13;;;;;;;40.67;14.55;;;;;;;3.93;78.44;101613.05;2056395;85;28480;-73
2022/01/15 09:42:16;;;;;;;46.18;16.60;;;;;;;4.00;78.52;101614.80;2045241;85;31027;-69
2022/01/15 09:45:20;;;;;;;41.30;15.38;;;;;;;4.05;78.43;101613.03;2049431;84;32982;-69
2022/01/15 09:48:25;;;;;;;49.67;17.92;;;;;;;4.11;78.33;101610.81;2048788;85;29638;-69
2022/01/15 09:51:26;;;;;;;;;;;;;;;4.16;78.13;101611.69;2050863;85;28309;-68
2022/01/15 09:54:28;;;;;;;34.15;12.33;;;;;;;4.20;78.03;101604.18;2068641;85;29471;-67
2022/01/15 09:57:30;;;;;;;38.23;12.85;;;;;;;4.24;77.94;101601.94;2072013;85;31070;-68
2022/01/15 10:00:32;;;;;;;37.88;13.50;;;;;;;4.31;77.95;101592.64;2056012;85;33179;-68
2022/01/15 10:03:34;;;;;;;36.83;13.35;;;;;;;4.37;77.82;101596.63;2060293;85;29784;-67
2022/01/15 10:06:35;;;;;;;49.20;17.23;;;;;;;4.43;77.71;101610.31;2043586;86;27643;-67
2022/01/15 10:09:38;;;;;;;50.12;19.85;;;;;;;4.50;77.90;101599.67;2043562;87;28549;-68
2022/01/15 10:12:42;;;;;;;42.73;13.70;;;;;;;4.56;77.53;101592.13;2049795;85;30857;-70
2022/01/15 10:15:46;;;;;;;39.13;14.28;;;;;;;4.55;77.18;101595.20;2035138;86;33137;-67
2022/01/15 10:18:48;;;;;;;45.98;15.90;;;;;;;4.59;77.39;101601.83;2029464;86;30832;-68
2022/01/15 10:22:11;;;;;;;39.40;16.85;;;;;;;4.61;76.96;101595.66;2050856;86;27712;-70
2022/01/15 10:25:20;;;;;;;38.75;14.25;;;;;;;4.63;77.02;101601.84;2051432;86;28837;-70
2022/01/15 10:28:23;;;;;;;38.98;14.00;;;;;;;4.68;77.00;101601.81;2047295;85;31021;-69
2022/01/15 10:31:30;;;;;;;36.60;14.73;;;;;;;4.71;76.89;101600.02;2022418;86;32973;-66
2022/01/15 10:34:36;;;;;;;34.60;14.55;;;;;;;4.74;76.60;101608.87;2056487;86;29652;-73
2022/01/15 10:37:54;;;;;;;45.78;14.25;;;;;;;4.75;76.53;101603.54;2057492;86;27701;-68
2022/01/15 10:40:57;;;;;;;48.20;16.35;;;;;;;4.80;76.51;101603.08;2035067;86;28771;-70
2022/01/15 10:44:00;;;;;;;43.10;16.90;;;;;;;4.81;76.29;101606.18;1972113;89;31207;-68
2022/01/15 10:47:15;;;;;;;35.70;11.45;;;;;;;4.85;76.07;101608.36;2032469;87;32956;-72
2022/01/15 10:50:33;;;;;;;46.55;18.45;;;;;;;4.88;76.17;101606.16;2032430;86;29635;-69
2022/01/15 10:53:46;;;;;;;36.77;11.48;;;;;;;4.89;75.95;101606.56;2032491;86;27744;-69
2022/01/15 10:56:53;;;;;;;31.15;10.18;;;;;;;4.93;75.87;101609.23;2032623;87;28681;-68
2022/01/15 11:00:02;;;;;;;26.82;11.63;;;;;;;4.92;75.51;101602.58;2002726;87;31148;-73
2022/01/15 11:03:10;;;;;;;31.07;11.05;;;;;;;4.89;75.62;101607.47;2017537;88;33057;-68
2022/01/15 11:06:12;;;;;;;33.83;10.20;;;;;;;4.93;75.38;101601.69;2017106;88;29836;-68
2022/01/15 11:09:14;;;;;;;32.45;12.33;;;;;;;4.88;75.42;101603.05;2006225;88;27681;-70
2022/01/15 11:12:16;;;;;;;34.25;11.22;;;;;;;4.94;75.55;101600.38;2005648;88;28827;-68
2022/01/15 11:15:18;;;;;;;36.80;12.35;;;;;;;4.98;75.30;101598.11;1992295;89;31961;-74
2022/01/15 11:18:27;;;;;;;36.25;11.08;;;;;;;4.97;75.07;101599.46;1997878;89;33084;-72
2022/01/15 11:21:31;;;;;;;27.80;10.20;;;;;;;4.95;74.90;101595.92;1997777;89;30496;-66
2022/01/15 11:24:33;;;;;;;31.48;10.13;;;;;;;4.95;75.06;101594.60;1998986;88;27664;-72
2022/01/15 11:27:35;;;;;;;24.30;10.18;;;;;;;5.01;75.27;101595.45;2003735;88;29613;-66
2022/01/15 11:30:38;;;;;;;37.33;12.93;;;;;;;5.06;74.98;101592.75;2002933;88;31282;-67
2022/01/15 11:33:45;;;;;;;35.83;11.28;;;;;;;5.10;75.01;101588.33;2001721;88;33038;-70
2022/01/15 11:36:48;;;;;;;29.30;11.35;;;;;;;5.16;75.02;101582.95;1996320;88;29661;-71
2022/01/15 11:39:52;;;;;;;68.05;28.10;;;;;;;5.20;74.89;101587.37;1985646;89;27720;-68
2022/01/15 11:42:53;;;;;;;40.43;17.15;;;;;;;5.23;74.73;101587.78;1985329;88;29580;-67
2022/01/15 11:45:58;;;;;;;37.20;14.65;;;;;;;5.25;74.53;101590.89;1988178;88;30665;-70
2022/01/15 11:49:34;;;;;;;40.55;14.18;;;;;;;5.25;74.46;101582.02;2001131;88;33013;-70
2022/01/15 11:52:36;;;;;;;45.95;13.72;;;;;;;5.28;74.61;101579.34;2003252;88;30270;-70
2022/01/15 11:55:42;;;;;;;42.45;15.25;;;;;;;5.35;74.67;101576.20;2003080;88;28292;-69
2022/01/15 11:58:42;;;;;;;39.25;13.20;;;;;;;5.44;74.63;101577.48;2016836;87;29793;-72
2022/01/15 12:01:43;;;;;;;34.95;13.30;;;;;;;5.42;74.03;101579.26;2013051;86;31136;-71
2022/01/15 12:04:45;;;;;;;37.93;11.48;;;;;;;5.41;74.16;101577.03;2013545;88;33581;-70
2022/01/15 12:08:01;;;;;;;31.40;11.80;;;;;;;5.41;73.98;101576.16;2014993;88;29695;-71
2022/01/15 12:11:05;;;;;;;34.05;12.47;;;;;;;5.35;73.72;101572.21;2014249;88;27748;-71
2022/01/15 12:14:07;;;;;;;38.17;13.05;;;;;;;5.29;73.80;101558.53;2016565;86;28721;-68
2022/01/15 12:17:42;;;;;;;43.92;15.13;;;;;;;5.30;73.84;101557.17;1996919;88;31024;-70
2022/01/15 12:20:45;;;;;;;39.18;16.62;;;;;;;5.35;73.94;101562.91;2014940;87;33852;-70
2022/01/15 12:23:47;;;;;;;49.70;18.20;;;;;;;5.33;73.82;101545.20;2015140;88;29643;-68
2022/01/15 12:27:09;;;;;;;48.52;18.07;;;;;;;5.34;73.66;101544.77;2023541;86;27688;-71
2022/01/15 12:30:18;;;;;;;75.65;30.60;;;;;;;5.34;73.76;101540.78;2048210;86;29598;-70
2022/01/15 12:33:20;;;;;;;53.95;17.25;;;;;;;5.35;73.87;101531.92;2048331;86;32007;-70
2022/01/15 12:36:22;;;;;;;44.58;17.45;;;;;;;5.37;73.54;101520.84;2048227;86;32805;-69
2022/01/15 12:39:39;;;;;;;37.13;14.13;;;;;;;5.40;73.72;101524.77;2048263;86;29644;-69
2022/01/15 12:42:41;;;;;;;41.53;13.38;;;;;;;5.42;73.67;101521.66;2022434;86;27691;-69
2022/01/15 12:45:46;;;;;;;41.30;13.10;;;;;;;5.45;73.31;101520.31;1988229;88;28635;-71
2022/01/15 12:48:49;;;;;;;;;;;;;;;5.41;73.18;101513.72;2009988;87;31116;-71
2022/01/15 12:52:11;;;;;;;31.27;13.30;;;;;;;5.35;73.29;101505.35;2043124;86;33029;-71
2022/01/15 12:55:12;;;;;;;48.25;15.43;;;;;;;5.31;73.32;101505.80;2048184;86;30426;-70
2022/01/15 12:58:18;;;;;;;42.17;15.85;;;;;;;5.24;73.19;101500.55;2046161;86;27631;-69
2022/01/15 13:01:22;;;;;;;52.25;20.00;;;;;;;5.24;73.38;101497.46;2043178;86;28695;-71
2022/01/15 13:04:23;;;;;;;37.65;14.70;;;;;;;5.30;73.49;101496.53;2047411;86;31725;-70
2022/01/15 13:07:25;;;;;;;40.50;14.15;;;;;;;5.30;73.22;101492.08;2046192;87;33562;-70
2022/01/15 13:10:46;;;;;;;44.08;13.20;;;;;;;5.25;73.16;101493.91;2046184;87;30636;-70
2022/01/15 13:13:46;;;;;;;44.58;13.88;;;;;;;5.20;73.05;101490.41;2045286;86;27622;-68
2022/01/15 13:16:48;;;;;;;44.53;15.80;;;;;;;5.11;72.91;101478.54;2045260;86;28664;-71
2022/01/15 13:19:50;;;;;;;40.65;15.05;;;;;;;5.04;72.91;101482.12;2047884;86;31841;-70
2022/01/15 13:22:53;;;;;;;45.23;15.00;;;;;;;4.92;72.84;101485.31;2047801;86;32948;-69
2022/01/15 13:25:57;;;;;;;43.08;14.90;;;;;;;4.85;72.85;101492.44;2048066;86;30279;-69
2022/01/15 13:29:02;;;;;;;52.25;18.02;;;;;;;4.76;72.83;101486.30;2047839;86;27630;-71
2022/01/15 13:32:07;;;;;;;57.23;23.30;;;;;;;4.65;72.90;101479.73;2045542;86;29514;-69
2022/01/15 13:35:13;;;;;;;43.50;17.07;;;;;;;4.60;73.02;101471.80;2046298;87;31061;-70
2022/01/15 13:38:16;;;;;;;38.00;13.90;;;;;;;4.51;72.88;101477.14;2045990;86;32977;-67
2022/01/15 13:41:24;;;;;;;49.05;16.10;;;;;;;4.41;72.96;101477.20;2045985;87;29635;-70
2022/01/15 13:44:35;;;;;;;45.88;17.30;;;;;;;4.34;72.99;101483.88;2046081;87;28316;-71
2022/01/15 13:47:36;;;;;;;45.15;16.30;;;;;;;4.26;73.04;101486.56;2045702;86;28765;-69
2022/01/15 13:54:10;;;;;;;45.12;17.95;;;;;;;4.17;73.18;101484.83;2058407;86;33173;-70
2022/01/15 13:57:13;;;;;;;48.28;21.30;;;;;;;4.10;73.22;101488.38;2066058;86;29679;-68
2022/01/15 14:00:17;;;;;;;46.53;21.50;;;;;;;4.03;73.27;101487.52;2079412;85;27767;-69
2022/01/15 14:03:19;;;;;;;42.20;15.63;;;;;;;3.99;73.25;101481.78;2063347;85;28698;-70
2022/01/15 14:06:21;;;;;;;34.35;13.95;;;;;;;3.94;73.28;101482.26;2091765;83;31125;-66
2022/01/15 14:09:23;;;;;;;36.50;12.93;;;;;;;3.89;73.29;101488.88;2121553;83;32994;-70
2022/01/15 14:12:26;;;;;;;30.80;11.83;;;;;;;3.82;73.27;101493.77;2117661;83;30388;-69
2022/01/15 14:15:35;;;;;;;36.38;12.25;;;;;;;3.77;73.30;101481.86;2109549;83;27684;-70
2022/01/15 14:18:46;;;;;;;34.85;11.75;;;;;;;3.71;73.38;101485.84;2080247;84;28654;-71
2022/01/15 14:21:52;;;;;;;37.25;11.93;;;;;;;3.65;73.40;101488.06;2081304;85;31755;-70
2022/01/15 14:24:51;;;;;;;40.23;13.43;;;;;;;3.59;73.42;101485.87;2046654;86;33784;-73
2022/01/15 14:28:06;;;;;;;31.87;12.93;;;;;;;3.54;73.39;101488.95;2052589;86;29470;-70
2022/01/15 14:31:08;;;;;;;40.30;13.98;;;;;;;3.45;73.36;101492.50;2052928;86;27725;-71
2022/01/15 14:34:10;;;;;;;42.43;13.32;;;;;;;3.37;73.38;101495.61;2052633;86;29656;-70